createdAt,value
2019-03-24T00:00:58.407Z,7.40
2019-03-24T00:03:30.018Z,7.50
2019-03-24T00:06:01.627Z,7.30
2019-03-24T00:08:33.315Z,7.20
2019-03-24T00:11:04.937Z,7.30
2019-03-24T00:13:36.745Z,7.30
2019-03-24T00:16:08.472Z,7.20
2019-03-24T00:18:40.511Z,7.20
2019-03-24T00:21:12.107Z,7.20
2019-03-24T00:23:43.756Z,7.10
2019-03-24T00:26:15.477Z,7.10
2019-03-24T00:28:47.079Z,7.10
2019-03-24T00:31:18.765Z,7.10
2019-03-24T00:33:50.395Z,7.00
2019-03-24T00:36:22.137Z,6.90
2019-03-24T00:38:53.770Z,6.80
2019-03-24T00:41:25.457Z,6.70
2019-03-24T00:43:57.041Z,6.60
2019-03-24T00:46:28.767Z,6.50
2019-03-24T00:49:00.427Z,6.30
2019-03-24T00:51:32.119Z,6.30
2019-03-24T00:54:03.707Z,5.90
2019-03-24T00:56:35.580Z,5.80
2019-03-24T00:59:07.219Z,5.90
2019-03-24T01:01:38.803Z,5.90
2019-03-24T01:04:10.466Z,6.00
2019-03-24T01:06:42.489Z,6.00
2019-03-24T01:09:14.201Z,6.00
2019-03-24T01:11:45.809Z,6.00
2019-03-24T01:14:17.427Z,6.00
2019-03-24T01:16:49.009Z,6.10
2019-03-24T01:19:20.679Z,6.20
2019-03-24T01:21:52.280Z,6.30
2019-03-24T01:24:24.146Z,6.40
2019-03-24T01:26:55.723Z,6.30
2019-03-24T01:29:27.377Z,6.30
2019-03-24T01:31:59.096Z,6.30
2019-03-24T01:34:30.779Z,6.30
2019-03-24T01:37:03.697Z,6.20
2019-03-24T01:39:46.837Z,6.20
2019-03-24T01:42:18.463Z,6.10
2019-03-24T01:44:50.078Z,6.10
2019-03-24T01:47:32.963Z,6.10
2019-03-24T01:50:04.790Z,6.00
2019-03-24T01:52:36.509Z,5.70
2019-03-24T01:55:09.577Z,5.70
2019-03-24T01:57:41.754Z,5.80
2019-03-24T02:00:13.745Z,5.80
2019-03-24T02:02:45.349Z,5.80
2019-03-24T02:05:17.041Z,5.80
2019-03-24T02:07:48.705Z,5.60
2019-03-24T02:10:20.577Z,5.60
2019-03-24T02:12:52.151Z,5.50
2019-03-24T02:15:23.805Z,5.50
2019-03-24T02:17:55.387Z,5.60
2019-03-24T02:20:27.376Z,5.50
2019-03-24T02:22:59.007Z,5.50
2019-03-24T02:25:30.831Z,5.50
2019-03-24T02:28:02.460Z,5.30
2019-03-24T02:30:34.116Z,5.40
2019-03-24T02:33:05.775Z,5.20
2019-03-24T02:35:37.388Z,5.30
2019-03-24T02:38:09.001Z,5.30
2019-03-24T02:40:40.664Z,5.40
2019-03-24T02:43:12.295Z,5.40
2019-03-24T02:45:43.855Z,5.50
2019-03-24T02:48:15.487Z,5.30
2019-03-24T02:50:47.153Z,5.40
2019-03-24T02:53:18.913Z,5.20
2019-03-24T02:55:50.524Z,5.10
2019-03-24T02:58:22.351Z,5.10
2019-03-24T03:00:54.103Z,5.00
2019-03-24T03:03:25.881Z,5.00
2019-03-24T03:05:57.547Z,5.00
2019-03-24T03:08:29.403Z,5.00
2019-03-24T03:11:01.997Z,4.90
2019-03-24T03:13:33.660Z,4.90
2019-03-24T03:16:05.298Z,5.00
2019-03-24T03:18:37.988Z,5.00
2019-03-24T03:21:09.647Z,5.00
2019-03-24T03:23:41.230Z,5.00
2019-03-24T03:26:12.946Z,4.90
2019-03-24T03:28:44.686Z,4.80
2019-03-24T03:31:16.324Z,4.80
2019-03-24T03:33:47.957Z,4.80
2019-03-24T03:36:19.584Z,4.80
2019-03-24T03:38:51.230Z,4.80
2019-03-24T03:41:22.876Z,4.90
2019-03-24T03:43:54.479Z,5.00
2019-03-24T03:46:26.202Z,4.90
2019-03-24T03:48:57.808Z,4.90
2019-03-24T03:51:29.552Z,5.00
2019-03-24T03:54:01.258Z,4.90
2019-03-24T03:56:32.914Z,4.90
2019-03-24T03:59:05.078Z,5.00
2019-03-24T04:01:36.681Z,5.00
2019-03-24T04:04:08.328Z,5.00
2019-03-24T04:06:39.997Z,5.00
2019-03-24T04:09:11.839Z,5.00
2019-03-24T04:11:43.594Z,4.90
2019-03-24T04:14:15.250Z,4.90
2019-03-24T04:16:48.038Z,4.80
2019-03-24T04:19:19.626Z,4.80
2019-03-24T04:21:51.349Z,4.80
2019-03-24T04:24:23.044Z,4.80
2019-03-24T04:26:54.717Z,4.70
2019-03-24T04:29:26.375Z,4.50
2019-03-24T04:31:58.017Z,4.40
2019-03-24T04:34:29.654Z,4.40
2019-03-24T04:37:01.303Z,4.50
2019-03-24T04:39:32.885Z,4.50
2019-03-24T04:42:04.582Z,4.60
2019-03-24T04:44:36.253Z,4.60
2019-03-24T04:47:16.304Z,4.40
2019-03-24T04:49:41.297Z,4.50
2019-03-24T04:52:13.117Z,4.50
2019-03-24T04:54:44.740Z,4.40
2019-03-24T04:57:16.445Z,4.40
2019-03-24T04:59:48.323Z,4.50
2019-03-24T05:02:19.933Z,4.60
2019-03-24T05:04:51.530Z,4.60
2019-03-24T05:07:23.203Z,4.50
2019-03-24T05:09:55.180Z,4.60
2019-03-24T05:12:27.101Z,4.50
2019-03-24T05:14:58.693Z,4.60
2019-03-24T05:17:30.380Z,4.40
2019-03-24T05:20:01.995Z,4.10
2019-03-24T05:22:33.607Z,4.20
2019-03-24T05:25:05.665Z,4.20
2019-03-24T05:27:37.661Z,4.00
2019-03-24T05:30:09.651Z,3.90
2019-03-24T05:32:41.323Z,3.90
2019-03-24T05:35:12.957Z,3.90
2019-03-24T05:37:44.603Z,3.90
2019-03-24T05:40:16.277Z,4.00
2019-03-24T05:42:47.883Z,3.90
2019-03-24T05:45:19.535Z,3.90
2019-03-24T05:47:51.242Z,4.10
2019-03-24T05:50:34.216Z,4.10
2019-03-24T05:53:05.937Z,4.30
2019-03-24T05:55:37.804Z,4.40
2019-03-24T05:58:09.531Z,4.40
2019-03-24T06:00:41.294Z,4.40
2019-03-24T06:03:13.245Z,4.30
2019-03-24T06:05:44.892Z,4.20
2019-03-24T06:08:16.661Z,4.30
2019-03-24T06:10:48.265Z,4.40
2019-03-24T06:13:20.016Z,4.50
2019-03-24T06:15:51.723Z,4.50
2019-03-24T06:18:23.391Z,4.40
2019-03-24T06:20:54.973Z,4.20
2019-03-24T06:23:26.605Z,4.00
2019-03-24T06:25:58.211Z,4.10
2019-03-24T06:28:29.939Z,4.20
2019-03-24T06:31:01.812Z,4.10
2019-03-24T06:33:33.687Z,4.20
2019-03-24T06:36:05.335Z,4.10
2019-03-24T06:38:55.866Z,4.30
2019-03-24T06:41:38.891Z,4.40
2019-03-24T06:44:10.685Z,4.50
2019-03-24T06:46:42.465Z,4.50
2019-03-24T06:49:14.465Z,4.60
2019-03-24T06:51:46.154Z,4.40
2019-03-24T06:54:17.881Z,4.40
2019-03-24T06:56:49.529Z,4.50
2019-03-24T06:59:21.397Z,4.70
2019-03-24T07:01:53.313Z,5.00
2019-03-24T07:04:25.109Z,5.20
2019-03-24T07:06:56.773Z,5.20
2019-03-24T07:09:28.563Z,5.30
2019-03-24T07:12:00.741Z,5.50
2019-03-24T07:14:33.299Z,5.60
2019-03-24T07:17:04.955Z,5.60
2019-03-24T07:19:36.583Z,5.50
2019-03-24T07:22:08.367Z,5.50
2019-03-24T07:24:40.073Z,5.50
2019-03-24T07:27:12.031Z,5.70
2019-03-24T07:29:43.856Z,5.70
2019-03-24T07:32:15.509Z,5.90
2019-03-24T07:34:47.147Z,6.00
2019-03-24T07:37:18.765Z,6.30
2019-03-24T07:39:50.365Z,6.40
2019-03-24T07:42:22.070Z,6.40
2019-03-24T07:44:53.863Z,6.50
2019-03-24T07:47:25.545Z,6.50
2019-03-24T07:49:57.294Z,6.60
2019-03-24T07:52:29.181Z,6.50
2019-03-24T07:55:01.478Z,6.70
2019-03-24T07:57:33.437Z,7.00
2019-03-24T08:00:06.251Z,7.30
2019-03-24T08:02:38.218Z,7.50
2019-03-24T08:08:43.985Z,7.60
2019-03-24T08:11:08.953Z,7.80
2019-03-24T08:13:59.426Z,8.10
2019-03-24T08:16:35.089Z,8.20
2019-03-24T08:19:07.327Z,8.20
2019-03-24T08:21:39.181Z,8.30
2019-03-24T08:24:11.333Z,8.50
2019-03-24T08:26:44.979Z,8.50
2019-03-24T08:29:16.935Z,8.60
2019-03-24T08:31:48.809Z,8.60
2019-03-24T08:34:21.679Z,8.70
2019-03-24T08:36:53.556Z,9.10
2019-03-24T08:39:25.244Z,8.70
2019-03-24T08:41:56.845Z,9.00
2019-03-24T08:44:29.039Z,9.30
2019-03-24T08:47:06.805Z,9.40
2019-03-24T08:49:39.987Z,9.60
2019-03-24T08:52:11.989Z,10.00
2019-03-24T08:58:13.577Z,10.50
2019-03-24T09:00:45.727Z,10.30
2019-03-24T09:06:42.066Z,10.70
2019-03-24T09:15:39.537Z,10.80
2019-03-24T09:18:11.848Z,11.00
2019-03-24T09:20:43.711Z,11.00
2019-03-24T09:27:09.378Z,11.50
2019-03-24T09:29:56.090Z,11.50
2019-03-24T09:32:28.510Z,11.90
2019-03-24T09:35:00.525Z,12.10
2019-03-24T09:37:43.882Z,12.00
2019-03-24T09:40:26.701Z,12.00
2019-03-24T09:43:00.465Z,12.20
2019-03-24T09:45:37.631Z,12.30
2019-03-24T09:48:09.471Z,12.30
2019-03-24T09:50:42.157Z,12.40
2019-03-24T09:53:13.868Z,12.70
2019-03-24T09:55:45.701Z,12.60
2019-03-24T09:58:17.613Z,12.70
2019-03-24T10:00:49.539Z,12.60
2019-03-24T10:03:23.363Z,12.80
2019-03-24T10:05:55.851Z,12.90
2019-03-24T10:08:27.977Z,13.20
2019-03-24T10:11:00.161Z,13.90
2019-03-24T10:13:34.395Z,13.80
2019-03-24T10:22:54.189Z,14.30
2019-03-24T10:25:27.085Z,14.10
2019-03-24T10:27:58.867Z,14.00
2019-03-24T10:30:33.131Z,14.40
2019-03-24T10:33:15.971Z,15.10
2019-03-24T10:35:49.033Z,15.80
2019-03-24T10:38:20.701Z,16.00
2019-03-24T10:40:52.421Z,16.10
2019-03-24T10:43:24.198Z,16.10
2019-03-24T10:45:55.881Z,15.60
2019-03-24T10:48:33.647Z,15.90
2019-03-24T10:51:01.311Z,16.00
2019-03-24T10:53:33.097Z,16.60
2019-03-24T10:56:05.807Z,16.50
2019-03-24T10:58:37.457Z,16.70
2019-03-24T11:01:09.407Z,16.90
2019-03-24T11:03:52.007Z,17.10
2019-03-24T11:06:23.805Z,16.80
2019-03-24T11:08:55.875Z,17.20
2019-03-24T11:11:27.636Z,17.50
2019-03-24T11:13:59.425Z,17.60
2019-03-24T11:16:31.399Z,17.90
2019-03-24T11:19:03.294Z,18.20
2019-03-24T11:21:35.273Z,18.20
2019-03-24T11:24:07.045Z,18.60
2019-03-24T11:26:38.721Z,18.50
2019-03-24T11:29:10.375Z,18.40
2019-03-24T11:31:42.272Z,18.10
2019-03-24T11:34:13.919Z,18.30
2019-03-24T11:36:45.650Z,19.10
2019-03-24T11:39:17.465Z,19.40
2019-03-24T11:41:49.207Z,19.10
2019-03-24T11:44:21.347Z,19.00
2019-03-24T11:46:53.327Z,18.80
2019-03-24T11:49:25.235Z,19.10
2019-03-24T11:51:57.117Z,19.70
2019-03-24T11:54:28.611Z,20.40
2019-03-24T11:57:00.302Z,20.90
2019-03-24T11:59:31.911Z,20.60
2019-03-24T12:02:03.723Z,20.70
2019-03-24T12:04:35.555Z,20.80
2019-03-24T12:07:07.237Z,21.10
2019-03-24T12:09:39.123Z,21.60
2019-03-24T12:12:10.848Z,21.50
2019-03-24T12:14:42.842Z,21.40
2019-03-24T12:17:14.905Z,22.00
2019-03-24T12:19:56.462Z,22.60
2019-03-24T12:22:20.103Z,21.70
2019-03-24T12:24:51.751Z,21.30
2019-03-24T12:27:23.409Z,20.00
2019-03-24T12:29:55.503Z,19.90
2019-03-24T12:32:27.365Z,20.40
2019-03-24T12:34:59.370Z,21.50
2019-03-24T12:37:30.973Z,22.10
2019-03-24T12:40:02.660Z,22.70
2019-03-24T12:42:34.306Z,22.10
2019-03-24T12:45:07.695Z,21.10
2019-03-24T12:47:39.633Z,20.90
2019-03-24T12:50:11.879Z,20.50
2019-03-24T12:52:43.709Z,21.60
2019-03-24T12:55:16.051Z,21.90
2019-03-24T12:57:47.827Z,22.00
2019-03-24T13:00:33.495Z,22.40
2019-03-24T13:03:06.007Z,22.10
2019-03-24T13:05:37.866Z,22.90
2019-03-24T13:08:17.205Z,22.80
2019-03-24T13:10:49.777Z,22.10
2019-03-24T13:13:21.569Z,22.00
2019-03-24T13:15:53.203Z,22.30
2019-03-24T13:18:25.125Z,21.90
2019-03-24T13:20:56.908Z,21.60
2019-03-24T13:23:28.526Z,21.00
2019-03-24T13:26:00.503Z,21.00
2019-03-24T13:28:32.104Z,21.40
2019-03-24T13:31:04.041Z,22.20
2019-03-24T13:33:35.657Z,21.70
2019-03-24T13:36:12.868Z,22.30
2019-03-24T13:38:44.541Z,21.80
2019-03-24T13:41:16.231Z,20.70
2019-03-24T13:43:47.931Z,21.00
2019-03-24T13:46:19.581Z,20.70
2019-03-24T13:48:51.226Z,21.00
2019-03-24T13:51:22.901Z,21.30
2019-03-24T13:53:54.758Z,22.20
2019-03-24T13:56:26.415Z,21.50
2019-03-24T13:58:58.033Z,20.60
2019-03-24T14:01:29.685Z,21.00
2019-03-24T14:04:01.601Z,21.70
2019-03-24T14:06:33.973Z,21.60
2019-03-24T14:09:08.314Z,21.90
2019-03-24T14:11:40.097Z,21.10
2019-03-24T14:14:11.969Z,22.10
2019-03-24T14:16:43.599Z,23.50
2019-03-24T14:19:15.207Z,22.10
2019-03-24T14:21:46.938Z,21.90
2019-03-24T14:24:18.800Z,21.70
2019-03-24T14:26:50.533Z,22.50
2019-03-24T14:29:22.167Z,22.10
2019-03-24T14:31:53.781Z,22.50
2019-03-24T14:34:25.716Z,22.80
2019-03-24T14:36:57.404Z,23.10
2019-03-24T14:39:29.061Z,23.20
2019-03-24T14:42:00.634Z,23.20
2019-03-24T14:44:32.291Z,22.00
2019-03-24T14:47:03.924Z,21.10
2019-03-24T14:49:35.505Z,21.40
2019-03-24T14:52:07.161Z,21.60
2019-03-24T14:54:38.754Z,22.40
2019-03-24T14:57:10.367Z,22.40
2019-03-24T14:59:42.211Z,22.10
2019-03-24T15:02:13.886Z,21.30
2019-03-24T15:04:45.496Z,20.80
2019-03-24T15:07:17.147Z,21.10
2019-03-24T15:09:48.775Z,20.70
2019-03-24T15:12:20.776Z,21.00
2019-03-24T15:14:52.444Z,20.90
2019-03-24T15:17:24.345Z,21.00
2019-03-24T15:19:56.132Z,21.60
2019-03-24T15:22:38.673Z,21.50
2019-03-24T15:25:10.299Z,20.90
2019-03-24T15:27:42.657Z,20.60
2019-03-24T15:30:15.403Z,20.50
2019-03-24T15:32:47.201Z,20.50
2019-03-24T15:35:30.446Z,20.70
2019-03-24T15:38:08.377Z,20.70
2019-03-24T15:40:35.839Z,20.80
2019-03-24T15:43:07.608Z,20.50
2019-03-24T15:45:40.477Z,20.30
2019-03-24T15:48:12.147Z,20.30
2019-03-24T15:50:43.827Z,20.60
2019-03-24T15:53:15.621Z,20.90
2019-03-24T15:55:47.451Z,20.80
2019-03-24T15:58:19.489Z,20.50
2019-03-24T16:00:51.153Z,20.50
2019-03-24T16:03:23.197Z,20.50
2019-03-24T16:05:56.458Z,20.70
2019-03-24T16:08:28.487Z,20.10
2019-03-24T16:11:00.299Z,19.80
2019-03-24T16:13:32.179Z,20.30
2019-03-24T16:16:04.467Z,20.10
2019-03-24T16:18:36.195Z,20.70
2019-03-24T16:21:07.787Z,20.40
2019-03-24T16:23:39.559Z,20.70
2019-03-24T16:26:11.547Z,20.10
2019-03-24T16:28:43.213Z,20.40
2019-03-24T16:31:15.220Z,20.50
2019-03-24T16:33:47.193Z,20.50
2019-03-24T16:36:19.179Z,20.70
2019-03-24T16:38:51.005Z,20.30
2019-03-24T16:41:22.911Z,19.80
2019-03-24T16:43:54.663Z,19.80
2019-03-24T16:46:26.635Z,19.90
2019-03-24T16:48:58.289Z,19.50
2019-03-24T16:51:38.177Z,19.80
2019-03-24T16:54:04.067Z,20.10
2019-03-24T16:56:54.630Z,19.70
2019-03-24T16:59:26.447Z,19.80
2019-03-24T17:01:58.126Z,20.10
2019-03-24T17:04:29.798Z,19.80
2019-03-24T17:07:01.612Z,20.10
2019-03-24T17:09:33.541Z,19.80
2019-03-24T17:12:05.443Z,19.90
2019-03-24T17:14:37.567Z,20.00
2019-03-24T17:17:11.457Z,19.60
2019-03-24T17:19:43.345Z,19.50
2019-03-24T17:22:15.162Z,19.40
2019-03-24T17:24:47.156Z,18.70
2019-03-24T17:27:18.841Z,18.40
2019-03-24T17:29:50.559Z,18.20
2019-03-24T17:32:22.239Z,18.00
2019-03-24T17:34:54.801Z,17.70
2019-03-24T17:37:35.001Z,17.60
2019-03-24T17:40:08.660Z,17.20
2019-03-24T17:42:40.327Z,17.10
2019-03-24T17:45:13.363Z,17.10
2019-03-24T17:47:44.989Z,16.90
2019-03-24T17:50:19.831Z,16.70
2019-03-24T17:53:10.314Z,16.60
2019-03-24T17:55:42.274Z,16.60
2019-03-24T17:58:15.682Z,16.40
2019-03-24T18:00:49.684Z,16.30
2019-03-24T18:03:21.375Z,16.00
2019-03-24T18:05:53.112Z,15.70
2019-03-24T18:08:24.903Z,15.80
2019-03-24T18:10:56.545Z,15.80
2019-03-24T18:13:28.183Z,15.70
2019-03-24T18:16:11.313Z,15.50
2019-03-24T18:18:43.017Z,15.40
2019-03-24T18:21:16.597Z,15.20
2019-03-24T18:23:48.607Z,15.20
2019-03-24T18:26:20.635Z,15.30
2019-03-24T18:28:52.269Z,15.20
2019-03-24T18:31:23.969Z,15.20
2019-03-24T18:33:55.717Z,15.10
2019-03-24T18:36:27.411Z,15.00
2019-03-24T18:38:59.111Z,14.90
2019-03-24T18:41:30.913Z,14.80
2019-03-24T18:44:02.626Z,14.80
2019-03-24T18:46:34.393Z,14.70
2019-03-24T18:49:06.065Z,14.60
2019-03-24T18:51:37.915Z,14.50
2019-03-24T18:54:09.670Z,14.50
2019-03-24T18:56:41.685Z,14.50
2019-03-24T18:59:13.387Z,14.50
2019-03-24T19:01:45.079Z,14.50
2019-03-24T19:04:16.945Z,14.40
2019-03-24T19:06:48.571Z,14.30
2019-03-24T19:09:20.244Z,14.40
2019-03-24T19:11:52.044Z,14.40
2019-03-24T19:14:23.701Z,14.30
2019-03-24T19:16:55.553Z,14.30
2019-03-24T19:19:27.273Z,14.10
2019-03-24T19:21:58.905Z,14.00
2019-03-24T19:24:30.517Z,14.10
2019-03-24T19:27:02.385Z,14.10
2019-03-24T19:29:34.131Z,14.00
2019-03-24T19:32:05.934Z,13.90
2019-03-24T19:34:37.773Z,13.90
2019-03-24T19:37:09.618Z,13.90
2019-03-24T19:39:41.403Z,13.90
2019-03-24T19:42:13.236Z,13.90
2019-03-24T19:44:44.977Z,14.00
2019-03-24T19:47:16.772Z,13.90
2019-03-24T19:49:48.503Z,13.90
2019-03-24T19:52:20.309Z,13.90
2019-03-24T19:54:52.062Z,13.80
2019-03-24T19:57:23.993Z,13.80
2019-03-24T19:59:55.763Z,13.90
2019-03-24T20:02:27.815Z,13.70
2019-03-24T20:04:59.713Z,13.60
2019-03-24T20:07:31.535Z,13.50
2019-03-24T20:10:03.407Z,13.60
2019-03-24T20:12:35.574Z,13.30
2019-03-24T20:15:07.728Z,13.20
2019-03-24T20:17:40.141Z,13.20
2019-03-24T20:20:12.016Z,13.10
2019-03-24T20:22:43.845Z,13.00
2019-03-24T20:25:15.829Z,13.10
2019-03-24T20:27:47.481Z,13.00
2019-03-24T20:30:20.252Z,13.00
2019-03-24T20:32:51.941Z,13.00
2019-03-24T20:35:23.622Z,12.90
2019-03-24T20:37:55.365Z,12.80
2019-03-24T20:40:27.159Z,12.60
2019-03-24T20:42:58.930Z,12.50
2019-03-24T20:45:30.869Z,12.50
2019-03-24T20:48:02.643Z,12.40
2019-03-24T20:50:35.957Z,12.40
2019-03-24T20:53:17.557Z,12.40
2019-03-24T20:55:41.071Z,12.40
2019-03-24T20:58:12.851Z,12.50
2019-03-24T21:00:44.493Z,12.60
2019-03-24T21:03:16.269Z,12.50
2019-03-24T21:05:48.287Z,12.40
2019-03-24T21:08:20.021Z,12.30
2019-03-24T21:10:51.721Z,12.10
2019-03-24T21:13:23.463Z,11.90
2019-03-24T21:15:55.219Z,11.90
2019-03-24T21:18:27.021Z,12.00
2019-03-24T21:20:58.687Z,12.10
2019-03-24T21:23:30.527Z,11.90
2019-03-24T21:26:03.789Z,11.70
2019-03-24T21:28:35.539Z,11.50
2019-03-24T21:31:07.274Z,11.50
2019-03-24T21:33:38.995Z,11.40
2019-03-24T21:36:10.799Z,11.30
2019-03-24T21:38:42.471Z,11.20
2019-03-24T21:41:14.179Z,11.20
2019-03-24T21:43:45.928Z,11.10
2019-03-24T21:46:17.575Z,11.10
2019-03-24T21:48:49.219Z,11.10
2019-03-24T21:51:21.015Z,11.10
2019-03-24T21:53:52.643Z,11.10
2019-03-24T21:56:24.341Z,11.10
2019-03-24T21:58:56.004Z,11.10
2019-03-24T22:01:27.736Z,11.00
2019-03-24T22:03:59.515Z,11.00
2019-03-24T22:06:31.131Z,11.00
2019-03-24T22:09:02.843Z,10.90
2019-03-24T22:11:35.977Z,10.80
2019-03-24T22:14:07.713Z,10.70
2019-03-24T22:16:39.661Z,10.60
2019-03-24T22:19:11.379Z,10.60
2019-03-24T22:21:43.155Z,10.60
2019-03-24T22:24:14.977Z,10.50
2019-03-24T22:26:46.719Z,10.30
2019-03-24T22:29:18.499Z,10.20
2019-03-24T22:31:50.184Z,10.20
2019-03-24T22:34:21.890Z,10.20
2019-03-24T22:36:53.683Z,10.20
2019-03-24T22:39:25.349Z,10.10
2019-03-24T22:41:57.070Z,10.00
2019-03-24T22:44:28.759Z,9.90
2019-03-24T22:47:00.424Z,9.80
2019-03-24T22:49:32.098Z,9.70
2019-03-24T22:52:07.517Z,9.60
2019-03-24T22:54:37.459Z,9.60
2019-03-24T22:57:09.175Z,9.50
2019-03-24T22:59:40.878Z,9.50
2019-03-24T23:02:12.561Z,9.50
2019-03-24T23:04:44.247Z,9.60
2019-03-24T23:07:16.001Z,9.60
2019-03-24T23:09:51.010Z,9.60
2019-03-24T23:12:22.607Z,9.60
2019-03-24T23:14:54.569Z,9.60
2019-03-24T23:17:26.176Z,9.50
2019-03-24T23:19:57.822Z,9.40
2019-03-24T23:22:29.611Z,9.30
2019-03-24T23:25:01.334Z,9.30
2019-03-24T23:27:33.039Z,9.10
2019-03-24T23:30:05.498Z,9.00
2019-03-24T23:32:37.137Z,8.80
2019-03-24T23:35:10.362Z,8.80
2019-03-24T23:37:42.039Z,8.80
2019-03-24T23:40:13.857Z,8.80
2019-03-24T23:42:45.579Z,8.70
2019-03-24T23:45:17.319Z,8.60
2019-03-24T23:47:49.068Z,8.50
2019-03-24T23:50:21.093Z,8.50
2019-03-24T23:52:53.136Z,8.50
2019-03-24T23:55:25.239Z,8.60
2019-03-24T23:57:56.957Z,8.60
